sensor_id;sensor_type;location;lat;lon;timestamp;temperature;humidity
11132;DHT22;5620;53.570;9.718;2024-01-30T00:01:41;6.90;1.00
11132;DHT22;5620;53.570;9.718;2024-01-30T00:04:06;6.90;1.00
11132;DHT22;5620;53.570;9.718;2024-01-30T00:06:32;6.80;1.00
11132;DHT22;5620;53.570;9.718;2024-01-30T00:08:58;6.80;1.00
11132;DHT22;5620;53.570;9.718;2024-01-30T00:11:23;6.80;1.00
11132;DHT22;5620;53.570;9.718;2024-01-30T00:13:49;6.80;1.00
11132;DHT22;5620;53.570;9.718;2024-01-30T00:16:24;6.80;1.00
11132;DHT22;5620;53.570;9.718;2024-01-30T00:18:51;6.80;1.00
11132;DHT22;5620;53.570;9.718;2024-01-30T00:21:17;6.80;1.00
11132;DHT22;5620;53.570;9.718;2024-01-30T00:23:42;6.80;1.00
11132;DHT22;5620;53.570;9.718;2024-01-30T00:26:08;6.70;1.00
11132;DHT22;5620;53.570;9.718;2024-01-30T00:28:33;6.70;1.00
11132;DHT22;5620;53.570;9.718;2024-01-30T00:30:59;6.80;1.00
11132;DHT22;5620;53.570;9.718;2024-01-30T00:33:24;6.80;1.00
11132;DHT22;5620;53.570;9.718;2024-01-30T00:35:50;6.70;1.00
11132;DHT22;5620;53.570;9.718;2024-01-30T00:38:15;6.70;1.00
11132;DHT22;5620;53.570;9.718;2024-01-30T00:40:41;6.70;1.00
11132;DHT22;5620;53.570;9.718;2024-01-30T00:43:06;6.70;1.00
11132;DHT22;5620;53.570;9.718;2024-01-30T00:45:32;6.70;1.00
11132;DHT22;5620;53.570;9.718;2024-01-30T00:47:58;6.80;1.00
11132;DHT22;5620;53.570;9.718;2024-01-30T00:50:23;6.70;1.20
11132;DHT22;5620;53.570;9.718;2024-01-30T00:52:49;6.70;1.00
11132;DHT22;5620;53.570;9.718;2024-01-30T00:55:14;6.70;1.00
11132;DHT22;5620;53.570;9.718;2024-01-30T00:57:40;6.70;6.80
11132;DHT22;5620;53.570;9.718;2024-01-30T01:00:06;6.70;17.20
11132;DHT22;5620;53.570;9.718;2024-01-30T01:02:32;6.80;20.40
11132;DHT22;5620;53.570;9.718;2024-01-30T01:04:57;6.70;21.00
11132;DHT22;5620;53.570;9.718;2024-01-30T01:07:23;6.70;27.30
11132;DHT22;5620;53.570;9.718;2024-01-30T01:09:48;6.70;33.60
11132;DHT22;5620;53.570;9.718;2024-01-30T01:12:14;6.70;41.30
11132;DHT22;5620;53.570;9.718;2024-01-30T01:14:39;6.70;52.70
11132;DHT22;5620;53.570;9.718;2024-01-30T01:17:05;6.70;54.40
11132;DHT22;5620;53.570;9.718;2024-01-30T01:19:31;6.70;59.20
11132;DHT22;5620;53.570;9.718;2024-01-30T01:21:56;6.70;61.80
11132;DHT22;5620;53.570;9.718;2024-01-30T01:24:22;6.70;67.20
11132;DHT22;5620;53.570;9.718;2024-01-30T01:26:47;6.70;66.90
11132;DHT22;5620;53.570;9.718;2024-01-30T01:29:13;6.70;60.30
11132;DHT22;5620;53.570;9.718;2024-01-30T01:31:39;6.70;49.70
11132;DHT22;5620;53.570;9.718;2024-01-30T01:34:04;6.70;54.70
11132;DHT22;5620;53.570;9.718;2024-01-30T01:36:30;6.70;59.00
11132;DHT22;5620;53.570;9.718;2024-01-30T01:38:55;6.70;64.00
11132;DHT22;5620;53.570;9.718;2024-01-30T01:41:21;6.80;69.20
11132;DHT22;5620;53.570;9.718;2024-01-30T01:43:46;6.80;71.90
11132;DHT22;5620;53.570;9.718;2024-01-30T01:46:12;6.80;74.40
11132;DHT22;5620;53.570;9.718;2024-01-30T01:48:37;6.80;73.50
11132;DHT22;5620;53.570;9.718;2024-01-30T01:51:03;6.80;69.60
11132;DHT22;5620;53.570;9.718;2024-01-30T01:53:28;6.80;66.30
11132;DHT22;5620;53.570;9.718;2024-01-30T01:55:54;6.90;64.60
11132;DHT22;5620;53.570;9.718;2024-01-30T01:58:21;6.90;46.80
11132;DHT22;5620;53.570;9.718;2024-01-30T02:00:47;6.90;27.30
11132;DHT22;5620;53.570;9.718;2024-01-30T02:03:14;6.90;24.10
11132;DHT22;5620;53.570;9.718;2024-01-30T02:05:43;6.90;28.40
11132;DHT22;5620;53.570;9.718;2024-01-30T02:08:09;6.90;20.60
11132;DHT22;5620;53.570;9.718;2024-01-30T02:10:34;6.90;20.60
11132;DHT22;5620;53.570;9.718;2024-01-30T02:13:00;6.90;18.90
11132;DHT22;5620;53.570;9.718;2024-01-30T02:15:25;6.90;12.10
11132;DHT22;5620;53.570;9.718;2024-01-30T02:17:51;6.80;1.00
11132;DHT22;5620;53.570;9.718;2024-01-30T02:20:17;6.80;1.00
11132;DHT22;5620;53.570;9.718;2024-01-30T02:22:43;6.80;1.00
11132;DHT22;5620;53.570;9.718;2024-01-30T02:25:08;6.80;1.70
11132;DHT22;5620;53.570;9.718;2024-01-30T02:27:34;6.70;1.00
11132;DHT22;5620;53.570;9.718;2024-01-30T02:29:59;6.70;1.00
11132;DHT22;5620;53.570;9.718;2024-01-30T02:32:25;6.60;1.00
11132;DHT22;5620;53.570;9.718;2024-01-30T02:34:51;6.60;1.00
11132;DHT22;5620;53.570;9.718;2024-01-30T02:37:16;6.50;3.50
11132;DHT22;5620;53.570;9.718;2024-01-30T02:39:42;6.50;5.40
11132;DHT22;5620;53.570;9.718;2024-01-30T02:42:07;6.50;13.60
11132;DHT22;5620;53.570;9.718;2024-01-30T02:44:33;6.40;17.80
11132;DHT22;5620;53.570;9.718;2024-01-30T02:46:58;6.40;16.00
11132;DHT22;5620;53.570;9.718;2024-01-30T02:49:24;6.30;19.90
11132;DHT22;5620;53.570;9.718;2024-01-30T02:51:50;6.30;19.40
11132;DHT22;5620;53.570;9.718;2024-01-30T02:54:16;6.20;20.50
11132;DHT22;5620;53.570;9.718;2024-01-30T02:56:41;6.20;20.20
11132;DHT22;5620;53.570;9.718;2024-01-30T02:59:07;6.20;21.40
11132;DHT22;5620;53.570;9.718;2024-01-30T03:01:32;6.10;30.00
11132;DHT22;5620;53.570;9.718;2024-01-30T03:03:58;6.10;40.20
11132;DHT22;5620;53.570;9.718;2024-01-30T03:06:23;6.00;45.00
11132;DHT22;5620;53.570;9.718;2024-01-30T03:08:49;6.00;48.50
11132;DHT22;5620;53.570;9.718;2024-01-30T03:11:14;5.90;57.20
11132;DHT22;5620;53.570;9.718;2024-01-30T03:13:40;5.90;65.00
11132;DHT22;5620;53.570;9.718;2024-01-30T03:16:06;5.80;71.90
11132;DHT22;5620;53.570;9.718;2024-01-30T03:18:31;5.80;80.60
11132;DHT22;5620;53.570;9.718;2024-01-30T03:20:57;5.80;87.50
11132;DHT22;5620;53.570;9.718;2024-01-30T03:23:22;5.70;93.50
11132;DHT22;5620;53.570;9.718;2024-01-30T03:25:48;5.70;97.90
11132;DHT22;5620;53.570;9.718;2024-01-30T03:28:13;5.70;99.90
11132;DHT22;5620;53.570;9.718;2024-01-30T03:30:39;5.60;99.90
11132;DHT22;5620;53.570;9.718;2024-01-30T03:33:04;5.60;99.90
11132;DHT22;5620;53.570;9.718;2024-01-30T03:35:30;5.60;99.90
11132;DHT22;5620;53.570;9.718;2024-01-30T03:37:55;5.60;99.90
11132;DHT22;5620;53.570;9.718;2024-01-30T03:40:21;5.60;99.90
11132;DHT22;5620;53.570;9.718;2024-01-30T03:42:46;5.60;99.90
11132;DHT22;5620;53.570;9.718;2024-01-30T03:45:12;5.60;99.90
11132;DHT22;5620;53.570;9.718;2024-01-30T03:47:37;5.60;99.90
11132;DHT22;5620;53.570;9.718;2024-01-30T03:50:03;5.50;99.90
11132;DHT22;5620;53.570;9.718;2024-01-30T03:52:29;5.50;99.90
11132;DHT22;5620;53.570;9.718;2024-01-30T03:54:54;5.50;99.90
11132;DHT22;5620;53.570;9.718;2024-01-30T03:57:20;5.50;99.90
11132;DHT22;5620;53.570;9.718;2024-01-30T03:59:45;5.50;99.90
11132;DHT22;5620;53.570;9.718;2024-01-30T04:02:11;5.50;99.90
11132;DHT22;5620;53.570;9.718;2024-01-30T04:04:37;5.40;99.90
11132;DHT22;5620;53.570;9.718;2024-01-30T04:07:02;5.40;99.90
11132;DHT22;5620;53.570;9.718;2024-01-30T04:09:28;5.40;99.90
11132;DHT22;5620;53.570;9.718;2024-01-30T04:11:53;5.40;99.90
11132;DHT22;5620;53.570;9.718;2024-01-30T04:14:19;5.40;99.90
11132;DHT22;5620;53.570;9.718;2024-01-30T04:16:45;5.40;99.90
11132;DHT22;5620;53.570;9.718;2024-01-30T04:19:10;5.40;99.90
11132;DHT22;5620;53.570;9.718;2024-01-30T04:21:36;5.50;99.90
11132;DHT22;5620;53.570;9.718;2024-01-30T04:24:01;5.50;99.90
11132;DHT22;5620;53.570;9.718;2024-01-30T04:26:27;5.50;99.90
11132;DHT22;5620;53.570;9.718;2024-01-30T04:28:52;5.50;99.90
11132;DHT22;5620;53.570;9.718;2024-01-30T04:31:18;5.50;1.00
11132;DHT22;5620;53.570;9.718;2024-01-30T04:33:44;5.50;1.00
11132;DHT22;5620;53.570;9.718;2024-01-30T04:36:09;5.50;1.00
11132;DHT22;5620;53.570;9.718;2024-01-30T04:38:35;5.50;1.00
11132;DHT22;5620;53.570;9.718;2024-01-30T04:41:00;5.50;1.00
11132;DHT22;5620;53.570;9.718;2024-01-30T04:43:26;5.50;1.00
11132;DHT22;5620;53.570;9.718;2024-01-30T04:45:51;5.50;1.00
11132;DHT22;5620;53.570;9.718;2024-01-30T04:48:17;5.60;1.00
11132;DHT22;5620;53.570;9.718;2024-01-30T04:50:42;5.60;1.00
11132;DHT22;5620;53.570;9.718;2024-01-30T04:53:08;5.60;1.00
11132;DHT22;5620;53.570;9.718;2024-01-30T04:55:34;5.60;1.00
11132;DHT22;5620;53.570;9.718;2024-01-30T04:58:00;5.70;1.00
11132;DHT22;5620;53.570;9.718;2024-01-30T05:00:25;5.70;1.00
11132;DHT22;5620;53.570;9.718;2024-01-30T05:02:51;5.70;1.00
11132;DHT22;5620;53.570;9.718;2024-01-30T05:05:16;5.70;1.00
11132;DHT22;5620;53.570;9.718;2024-01-30T05:07:42;5.70;1.00
11132;DHT22;5620;53.570;9.718;2024-01-30T05:10:08;5.70;1.00
11132;DHT22;5620;53.570;9.718;2024-01-30T05:12:33;5.70;1.00
11132;DHT22;5620;53.570;9.718;2024-01-30T05:14:59;5.60;1.00
11132;DHT22;5620;53.570;9.718;2024-01-30T05:17:24;5.60;1.00
11132;DHT22;5620;53.570;9.718;2024-01-30T05:19:50;5.70;1.00
11132;DHT22;5620;53.570;9.718;2024-01-30T05:22:15;5.70;1.00
11132;DHT22;5620;53.570;9.718;2024-01-30T05:24:44;5.70;1.00
11132;DHT22;5620;53.570;9.718;2024-01-30T05:27:10;5.70;1.00
11132;DHT22;5620;53.570;9.718;2024-01-30T05:29:35;5.70;1.00
11132;DHT22;5620;53.570;9.718;2024-01-30T05:32:01;5.70;1.00
11132;DHT22;5620;53.570;9.718;2024-01-30T05:34:27;5.70;1.00
11132;DHT22;5620;53.570;9.718;2024-01-30T05:36:52;5.70;1.00
11132;DHT22;5620;53.570;9.718;2024-01-30T05:39:18;5.70;4.40
11132;DHT22;5620;53.570;9.718;2024-01-30T05:41:43;5.70;20.00
11132;DHT22;5620;53.570;9.718;2024-01-30T05:44:09;5.70;49.80
11132;DHT22;5620;53.570;9.718;2024-01-30T05:46:35;5.70;77.00
11132;DHT22;5620;53.570;9.718;2024-01-30T05:49:01;5.80;97.60
11132;DHT22;5620;53.570;9.718;2024-01-30T05:51:26;5.80;99.90
11132;DHT22;5620;53.570;9.718;2024-01-30T05:53:52;5.80;99.90
11132;DHT22;5620;53.570;9.718;2024-01-30T05:56:17;5.90;99.90
11132;DHT22;5620;53.570;9.718;2024-01-30T05:58:43;6.00;99.90
11132;DHT22;5620;53.570;9.718;2024-01-30T06:01:09;6.10;99.90
11132;DHT22;5620;53.570;9.718;2024-01-30T06:03:34;6.20;99.90
11132;DHT22;5620;53.570;9.718;2024-01-30T06:06:00;6.30;99.90
11132;DHT22;5620;53.570;9.718;2024-01-30T06:08:25;6.40;99.90
11132;DHT22;5620;53.570;9.718;2024-01-30T06:10:51;6.60;99.90
11132;DHT22;5620;53.570;9.718;2024-01-30T06:13:17;6.60;99.90
11132;DHT22;5620;53.570;9.718;2024-01-30T06:15:42;6.70;99.90
11132;DHT22;5620;53.570;9.718;2024-01-30T06:18:08;6.70;99.90
11132;DHT22;5620;53.570;9.718;2024-01-30T06:20:34;6.70;99.90
11132;DHT22;5620;53.570;9.718;2024-01-30T06:22:59;6.80;99.90
11132;DHT22;5620;53.570;9.718;2024-01-30T06:25:25;6.80;99.90
11132;DHT22;5620;53.570;9.718;2024-01-30T06:27:51;6.80;99.90
11132;DHT22;5620;53.570;9.718;2024-01-30T06:30:16;6.70;99.90
11132;DHT22;5620;53.570;9.718;2024-01-30T06:32:42;6.70;99.90
11132;DHT22;5620;53.570;9.718;2024-01-30T06:35:08;6.60;99.90
11132;DHT22;5620;53.570;9.718;2024-01-30T06:37:33;6.60;99.90
11132;DHT22;5620;53.570;9.718;2024-01-30T06:39:59;6.60;99.90
11132;DHT22;5620;53.570;9.718;2024-01-30T06:42:24;6.50;99.90
11132;DHT22;5620;53.570;9.718;2024-01-30T06:44:50;6.50;99.90
11132;DHT22;5620;53.570;9.718;2024-01-30T06:47:15;6.50;99.90
11132;DHT22;5620;53.570;9.718;2024-01-30T06:49:41;6.50;99.90
11132;DHT22;5620;53.570;9.718;2024-01-30T06:52:06;6.40;99.90
11132;DHT22;5620;53.570;9.718;2024-01-30T06:54:32;6.40;99.90
11132;DHT22;5620;53.570;9.718;2024-01-30T06:56:57;6.30;99.90
11132;DHT22;5620;53.570;9.718;2024-01-30T06:59:23;6.30;99.90
11132;DHT22;5620;53.570;9.718;2024-01-30T07:01:48;6.30;99.90
11132;DHT22;5620;53.570;9.718;2024-01-30T07:04:14;6.30;99.90
11132;DHT22;5620;53.570;9.718;2024-01-30T07:06:39;6.30;99.90
11132;DHT22;5620;53.570;9.718;2024-01-30T07:09:05;6.30;99.90
11132;DHT22;5620;53.570;9.718;2024-01-30T07:11:31;6.30;99.90
11132;DHT22;5620;53.570;9.718;2024-01-30T07:13:56;6.30;99.90
11132;DHT22;5620;53.570;9.718;2024-01-30T07:16:22;6.40;99.90
11132;DHT22;5620;53.570;9.718;2024-01-30T07:18:48;6.40;99.90
11132;DHT22;5620;53.570;9.718;2024-01-30T07:21:13;6.40;99.90
11132;DHT22;5620;53.570;9.718;2024-01-30T07:23:39;6.50;99.90
11132;DHT22;5620;53.570;9.718;2024-01-30T07:26:05;6.50;99.90
11132;DHT22;5620;53.570;9.718;2024-01-30T07:28:31;6.60;99.90
11132;DHT22;5620;53.570;9.718;2024-01-30T07:30:56;6.70;99.90
11132;DHT22;5620;53.570;9.718;2024-01-30T07:33:22;6.80;99.90
11132;DHT22;5620;53.570;9.718;2024-01-30T07:35:47;6.90;99.90
11132;DHT22;5620;53.570;9.718;2024-01-30T07:38:13;6.90;99.90
11132;DHT22;5620;53.570;9.718;2024-01-30T07:40:38;7.00;99.90
11132;DHT22;5620;53.570;9.718;2024-01-30T07:43:04;7.10;99.90
11132;DHT22;5620;53.570;9.718;2024-01-30T07:45:29;7.20;99.90
11132;DHT22;5620;53.570;9.718;2024-01-30T07:47:55;7.30;99.90
11132;DHT22;5620;53.570;9.718;2024-01-30T07:50:20;7.40;99.90
11132;DHT22;5620;53.570;9.718;2024-01-30T07:52:46;7.40;99.90
11132;DHT22;5620;53.570;9.718;2024-01-30T07:55:11;7.50;99.90
11132;DHT22;5620;53.570;9.718;2024-01-30T07:57:38;7.50;99.90
11132;DHT22;5620;53.570;9.718;2024-01-30T08:00:05;7.60;99.90
11132;DHT22;5620;53.570;9.718;2024-01-30T08:02:30;7.70;99.90
11132;DHT22;5620;53.570;9.718;2024-01-30T08:04:56;7.80;99.90
11132;DHT22;5620;53.570;9.718;2024-01-30T08:07:21;7.90;99.90
11132;DHT22;5620;53.570;9.718;2024-01-30T08:09:47;7.90;99.90
11132;DHT22;5620;53.570;9.718;2024-01-30T08:12:12;8.00;99.90
11132;DHT22;5620;53.570;9.718;2024-01-30T08:14:38;8.10;99.90
11132;DHT22;5620;53.570;9.718;2024-01-30T08:17:03;8.20;99.90
11132;DHT22;5620;53.570;9.718;2024-01-30T08:19:29;8.20;98.30
11132;DHT22;5620;53.570;9.718;2024-01-30T08:21:54;8.30;92.00
11132;DHT22;5620;53.570;9.718;2024-01-30T08:24:20;8.40;69.80
11132;DHT22;5620;53.570;9.718;2024-01-30T08:26:45;8.40;52.30
11132;DHT22;5620;53.570;9.718;2024-01-30T08:29:11;8.50;15.80
11132;DHT22;5620;53.570;9.718;2024-01-30T08:31:36;8.50;1.00
11132;DHT22;5620;53.570;9.718;2024-01-30T08:34:02;8.50;1.00
11132;DHT22;5620;53.570;9.718;2024-01-30T08:36:27;8.50;1.00
11132;DHT22;5620;53.570;9.718;2024-01-30T08:38:53;8.50;1.00
11132;DHT22;5620;53.570;9.718;2024-01-30T08:41:19;8.50;1.00
11132;DHT22;5620;53.570;9.718;2024-01-30T08:43:44;8.50;1.00
11132;DHT22;5620;53.570;9.718;2024-01-30T08:46:10;8.50;1.00
11132;DHT22;5620;53.570;9.718;2024-01-30T08:48:36;8.60;1.00
11132;DHT22;5620;53.570;9.718;2024-01-30T08:51:01;8.60;1.00
11132;DHT22;5620;53.570;9.718;2024-01-30T08:53:27;8.70;1.00
11132;DHT22;5620;53.570;9.718;2024-01-30T08:55:52;8.80;1.00
11132;DHT22;5620;53.570;9.718;2024-01-30T08:58:18;8.90;1.00
11132;DHT22;5620;53.570;9.718;2024-01-30T09:00:43;8.90;1.00
11132;DHT22;5620;53.570;9.718;2024-01-30T09:03:09;9.00;99.90
11132;DHT22;5620;53.570;9.718;2024-01-30T09:05:34;9.10;1.00
11132;DHT22;5620;53.570;9.718;2024-01-30T09:08:00;9.20;99.90
11132;DHT22;5620;53.570;9.718;2024-01-30T09:10:26;9.30;99.90
11132;DHT22;5620;53.570;9.718;2024-01-30T09:12:51;9.30;99.90
11132;DHT22;5620;53.570;9.718;2024-01-30T09:15:17;9.40;99.90
11132;DHT22;5620;53.570;9.718;2024-01-30T09:17:43;9.50;99.90
11132;DHT22;5620;53.570;9.718;2024-01-30T09:20:08;9.60;99.90
11132;DHT22;5620;53.570;9.718;2024-01-30T09:22:34;9.70;99.90
11132;DHT22;5620;53.570;9.718;2024-01-30T09:24:59;9.80;99.90
11132;DHT22;5620;53.570;9.718;2024-01-30T09:27:25;9.80;99.90
11132;DHT22;5620;53.570;9.718;2024-01-30T09:29:51;9.90;90.40
11132;DHT22;5620;53.570;9.718;2024-01-30T09:32:16;9.90;83.20
11132;DHT22;5620;53.570;9.718;2024-01-30T09:34:42;10.00;68.50
11132;DHT22;5620;53.570;9.718;2024-01-30T09:37:07;10.20;33.80
11132;DHT22;5620;53.570;9.718;2024-01-30T09:39:33;10.30;22.70
11132;DHT22;5620;53.570;9.718;2024-01-30T09:42:18;10.50;1.00
11132;DHT22;5620;53.570;9.718;2024-01-30T09:44:47;10.60;1.00
11132;DHT22;5620;53.570;9.718;2024-01-30T09:47:16;10.80;1.00
11132;DHT22;5620;53.570;9.718;2024-01-30T09:49:43;10.90;1.00
11132;DHT22;5620;53.570;9.718;2024-01-30T09:52:09;11.00;1.00
11132;DHT22;5620;53.570;9.718;2024-01-30T09:54:35;11.20;1.00
11132;DHT22;5620;53.570;9.718;2024-01-30T09:57:00;11.30;1.00
11132;DHT22;5620;53.570;9.718;2024-01-30T09:59:26;11.30;1.00
11132;DHT22;5620;53.570;9.718;2024-01-30T10:01:52;11.40;1.00
11132;DHT22;5620;53.570;9.718;2024-01-30T10:04:17;11.40;1.00
11132;DHT22;5620;53.570;9.718;2024-01-30T10:06:43;11.50;99.90
11132;DHT22;5620;53.570;9.718;2024-01-30T10:09:09;11.60;99.90
11132;DHT22;5620;53.570;9.718;2024-01-30T10:11:35;11.70;99.90
11132;DHT22;5620;53.570;9.718;2024-01-30T10:14:01;11.80;99.90
11132;DHT22;5620;53.570;9.718;2024-01-30T10:16:27;11.90;99.90
11132;DHT22;5620;53.570;9.718;2024-01-30T10:18:53;11.90;99.90
11132;DHT22;5620;53.570;9.718;2024-01-30T10:21:18;12.10;99.90
11132;DHT22;5620;53.570;9.718;2024-01-30T10:23:44;12.20;99.90
11132;DHT22;5620;53.570;9.718;2024-01-30T10:26:09;12.20;99.90
11132;DHT22;5620;53.570;9.718;2024-01-30T10:28:35;12.40;99.90
11132;DHT22;5620;53.570;9.718;2024-01-30T10:31:01;12.30;93.80
11132;DHT22;5620;53.570;9.718;2024-01-30T10:33:30;12.40;91.80
11132;DHT22;5620;53.570;9.718;2024-01-30T10:36:05;12.50;83.30
11132;DHT22;5620;53.570;9.718;2024-01-30T10:38:32;12.60;75.00
11132;DHT22;5620;53.570;9.718;2024-01-30T10:40:59;12.80;62.70
11132;DHT22;5620;53.570;9.718;2024-01-30T10:43:48;12.90;24.20
11132;DHT22;5620;53.570;9.718;2024-01-30T10:46:20;13.00;3.50
11132;DHT22;5620;53.570;9.718;2024-01-30T10:49:06;13.10;1.00
11132;DHT22;5620;53.570;9.718;2024-01-30T10:51:32;13.10;1.00
11132;DHT22;5620;53.570;9.718;2024-01-30T10:53:58;13.10;1.00
11132;DHT22;5620;53.570;9.718;2024-01-30T10:56:24;13.00;1.00
11132;DHT22;5620;53.570;9.718;2024-01-30T10:58:51;13.10;1.00
11132;DHT22;5620;53.570;9.718;2024-01-30T11:01:24;13.10;1.00
11132;DHT22;5620;53.570;9.718;2024-01-30T11:03:54;13.10;1.00
11132;DHT22;5620;53.570;9.718;2024-01-30T11:06:24;13.10;1.00
11132;DHT22;5620;53.570;9.718;2024-01-30T11:09:03;13.10;1.00
11132;DHT22;5620;53.570;9.718;2024-01-30T11:11:29;13.10;1.00
11132;DHT22;5620;53.570;9.718;2024-01-30T11:13:54;13.00;1.00
11132;DHT22;5620;53.570;9.718;2024-01-30T11:16:20;13.00;1.00
11132;DHT22;5620;53.570;9.718;2024-01-30T11:18:50;13.10;1.00
11132;DHT22;5620;53.570;9.718;2024-01-30T11:21:16;13.10;1.00
11132;DHT22;5620;53.570;9.718;2024-01-30T11:23:42;13.00;1.00
11132;DHT22;5620;53.570;9.718;2024-01-30T11:26:10;13.00;1.00
11132;DHT22;5620;53.570;9.718;2024-01-30T11:28:37;13.00;1.00
11132;DHT22;5620;53.570;9.718;2024-01-30T11:31:06;13.00;1.00
11132;DHT22;5620;53.570;9.718;2024-01-30T11:33:32;13.00;1.00
11132;DHT22;5620;53.570;9.718;2024-01-30T11:35:58;13.00;1.00
11132;DHT22;5620;53.570;9.718;2024-01-30T11:38:26;13.00;1.00
11132;DHT22;5620;53.570;9.718;2024-01-30T11:40:53;13.00;1.00
11132;DHT22;5620;53.570;9.718;2024-01-30T11:43:19;13.00;1.00
11132;DHT22;5620;53.570;9.718;2024-01-30T11:45:45;13.10;1.00
11132;DHT22;5620;53.570;9.718;2024-01-30T11:48:12;13.00;1.00
11132;DHT22;5620;53.570;9.718;2024-01-30T11:50:39;13.00;1.00
11132;DHT22;5620;53.570;9.718;2024-01-30T11:53:04;13.00;1.00
11132;DHT22;5620;53.570;9.718;2024-01-30T11:55:30;12.90;1.00
11132;DHT22;5620;53.570;9.718;2024-01-30T11:57:59;12.90;1.00
11132;DHT22;5620;53.570;9.718;2024-01-30T12:00:25;12.90;1.00
11132;DHT22;5620;53.570;9.718;2024-01-30T12:02:52;12.90;1.00
11132;DHT22;5620;53.570;9.718;2024-01-30T12:05:19;12.90;1.00
11132;DHT22;5620;53.570;9.718;2024-01-30T12:07:45;12.90;1.00
11132;DHT22;5620;53.570;9.718;2024-01-30T12:10:11;12.90;1.00
11132;DHT22;5620;53.570;9.718;2024-01-30T12:12:36;12.80;1.00
11132;DHT22;5620;53.570;9.718;2024-01-30T12:15:02;12.80;1.00
11132;DHT22;5620;53.570;9.718;2024-01-30T12:17:28;12.90;1.00
11132;DHT22;5620;53.570;9.718;2024-01-30T12:20:08;12.90;1.00
11132;DHT22;5620;53.570;9.718;2024-01-30T12:22:38;13.00;1.00
11132;DHT22;5620;53.570;9.718;2024-01-30T12:25:14;13.10;1.00
11132;DHT22;5620;53.570;9.718;2024-01-30T12:27:43;13.20;1.00
11132;DHT22;5620;53.570;9.718;2024-01-30T12:30:11;13.40;1.00
11132;DHT22;5620;53.570;9.718;2024-01-30T12:32:39;13.40;1.00
11132;DHT22;5620;53.570;9.718;2024-01-30T12:35:17;13.30;1.00
11132;DHT22;5620;53.570;9.718;2024-01-30T12:37:47;13.20;1.00
11132;DHT22;5620;53.570;9.718;2024-01-30T12:40:16;13.20;1.00
11132;DHT22;5620;53.570;9.718;2024-01-30T12:42:42;13.10;1.00
11132;DHT22;5620;53.570;9.718;2024-01-30T12:45:08;13.00;1.00
11132;DHT22;5620;53.570;9.718;2024-01-30T12:47:34;13.00;1.00
11132;DHT22;5620;53.570;9.718;2024-01-30T12:49:59;13.00;1.00
11132;DHT22;5620;53.570;9.718;2024-01-30T12:52:25;12.80;1.00
11132;DHT22;5620;53.570;9.718;2024-01-30T12:54:51;12.80;1.00
11132;DHT22;5620;53.570;9.718;2024-01-30T12:57:18;12.70;1.00
11132;DHT22;5620;53.570;9.718;2024-01-30T12:59:44;12.60;1.00
11132;DHT22;5620;53.570;9.718;2024-01-30T13:02:11;12.60;1.00
11132;DHT22;5620;53.570;9.718;2024-01-30T13:04:37;12.50;1.00
11132;DHT22;5620;53.570;9.718;2024-01-30T13:07:03;12.50;1.00
11132;DHT22;5620;53.570;9.718;2024-01-30T13:09:29;12.40;1.00
11132;DHT22;5620;53.570;9.718;2024-01-30T13:11:55;12.40;1.00
11132;DHT22;5620;53.570;9.718;2024-01-30T13:14:21;12.40;1.00
11132;DHT22;5620;53.570;9.718;2024-01-30T13:16:46;12.30;1.00
11132;DHT22;5620;53.570;9.718;2024-01-30T13:19:12;12.30;1.00
11132;DHT22;5620;53.570;9.718;2024-01-30T13:21:37;12.20;1.00
11132;DHT22;5620;53.570;9.718;2024-01-30T13:24:04;12.30;1.00
11132;DHT22;5620;53.570;9.718;2024-01-30T13:26:31;12.30;1.00
11132;DHT22;5620;53.570;9.718;2024-01-30T13:28:57;12.30;1.00
11132;DHT22;5620;53.570;9.718;2024-01-30T13:31:23;12.30;1.00
11132;DHT22;5620;53.570;9.718;2024-01-30T13:33:49;12.30;1.00
11132;DHT22;5620;53.570;9.718;2024-01-30T13:36:15;12.40;1.00
11132;DHT22;5620;53.570;9.718;2024-01-30T13:38:40;12.50;1.00
11132;DHT22;5620;53.570;9.718;2024-01-30T13:41:06;12.50;1.00
11132;DHT22;5620;53.570;9.718;2024-01-30T13:43:31;12.40;1.00
11132;DHT22;5620;53.570;9.718;2024-01-30T13:45:57;12.40;1.00
11132;DHT22;5620;53.570;9.718;2024-01-30T13:48:22;12.40;1.00
11132;DHT22;5620;53.570;9.718;2024-01-30T13:50:48;12.30;1.00
11132;DHT22;5620;53.570;9.718;2024-01-30T13:53:14;12.30;1.00
11132;DHT22;5620;53.570;9.718;2024-01-30T13:55:39;12.20;1.00
11132;DHT22;5620;53.570;9.718;2024-01-30T13:58:06;12.20;1.00
11132;DHT22;5620;53.570;9.718;2024-01-30T14:00:33;12.10;1.00
11132;DHT22;5620;53.570;9.718;2024-01-30T14:02:59;12.10;1.00
11132;DHT22;5620;53.570;9.718;2024-01-30T14:05:25;12.10;1.00
11132;DHT22;5620;53.570;9.718;2024-01-30T14:07:54;12.10;1.00
11132;DHT22;5620;53.570;9.718;2024-01-30T14:10:19;12.10;1.00
11132;DHT22;5620;53.570;9.718;2024-01-30T14:12:45;12.10;1.00
11132;DHT22;5620;53.570;9.718;2024-01-30T14:15:11;12.20;1.00
11132;DHT22;5620;53.570;9.718;2024-01-30T14:17:38;12.30;1.00
11132;DHT22;5620;53.570;9.718;2024-01-30T14:20:04;12.40;1.00
11132;DHT22;5620;53.570;9.718;2024-01-30T14:22:29;12.40;1.00
11132;DHT22;5620;53.570;9.718;2024-01-30T14:24:55;12.30;1.00
11132;DHT22;5620;53.570;9.718;2024-01-30T14:27:20;12.30;1.00
11132;DHT22;5620;53.570;9.718;2024-01-30T14:29:46;12.40;1.00
11132;DHT22;5620;53.570;9.718;2024-01-30T14:32:11;12.30;1.00
11132;DHT22;5620;53.570;9.718;2024-01-30T14:34:37;12.30;1.00
11132;DHT22;5620;53.570;9.718;2024-01-30T14:37:02;12.40;1.00
11132;DHT22;5620;53.570;9.718;2024-01-30T14:39:28;12.40;1.00
11132;DHT22;5620;53.570;9.718;2024-01-30T14:41:53;12.40;1.00
11132;DHT22;5620;53.570;9.718;2024-01-30T14:44:19;12.40;1.00
11132;DHT22;5620;53.570;9.718;2024-01-30T14:46:45;12.40;1.00
11132;DHT22;5620;53.570;9.718;2024-01-30T14:49:10;12.40;1.00
11132;DHT22;5620;53.570;9.718;2024-01-30T14:51:36;12.40;1.00
11132;DHT22;5620;53.570;9.718;2024-01-30T14:54:01;12.40;1.00
11132;DHT22;5620;53.570;9.718;2024-01-30T14:56:27;12.40;1.00
11132;DHT22;5620;53.570;9.718;2024-01-30T14:58:53;12.40;1.00
11132;DHT22;5620;53.570;9.718;2024-01-30T15:01:18;12.40;1.00
11132;DHT22;5620;53.570;9.718;2024-01-30T15:03:44;12.40;1.00
11132;DHT22;5620;53.570;9.718;2024-01-30T15:06:11;12.30;1.00
11132;DHT22;5620;53.570;9.718;2024-01-30T15:08:37;12.20;1.00
11132;DHT22;5620;53.570;9.718;2024-01-30T15:11:03;12.20;1.00
11132;DHT22;5620;53.570;9.718;2024-01-30T15:13:28;12.10;1.00
11132;DHT22;5620;53.570;9.718;2024-01-30T15:15:54;12.10;1.00
11132;DHT22;5620;53.570;9.718;2024-01-30T15:18:19;12.10;1.00
11132;DHT22;5620;53.570;9.718;2024-01-30T15:20:45;12.10;1.00
11132;DHT22;5620;53.570;9.718;2024-01-30T15:23:10;12.10;1.00
11132;DHT22;5620;53.570;9.718;2024-01-30T15:25:36;12.10;1.00
11132;DHT22;5620;53.570;9.718;2024-01-30T15:28:01;12.10;1.00
11132;DHT22;5620;53.570;9.718;2024-01-30T15:30:27;12.10;1.00
11132;DHT22;5620;53.570;9.718;2024-01-30T15:32:52;12.00;1.00
11132;DHT22;5620;53.570;9.718;2024-01-30T15:35:18;12.00;1.00
11132;DHT22;5620;53.570;9.718;2024-01-30T15:37:44;12.00;1.00
11132;DHT22;5620;53.570;9.718;2024-01-30T15:40:11;11.90;1.00
11132;DHT22;5620;53.570;9.718;2024-01-30T15:42:36;11.90;1.00
11132;DHT22;5620;53.570;9.718;2024-01-30T15:45:02;11.80;1.00
11132;DHT22;5620;53.570;9.718;2024-01-30T15:47:28;11.70;1.00
11132;DHT22;5620;53.570;9.718;2024-01-30T15:49:53;11.50;1.00
11132;DHT22;5620;53.570;9.718;2024-01-30T15:52:19;11.40;1.00
11132;DHT22;5620;53.570;9.718;2024-01-30T15:54:45;11.30;1.00
11132;DHT22;5620;53.570;9.718;2024-01-30T15:57:11;11.30;1.00